sensor_id;sensor_type;location;lat;lon;timestamp;pressure;altitude;pressure_sealevel;temperature;humidity
57568;BME280;43403;51.948;5.922;2023-02-02T00:01:48;101987.66;;;7.13;100.00
57568;BME280;43403;51.948;5.922;2023-02-02T00:04:19;101994.47;;;7.16;100.00
57568;BME280;43403;51.948;5.922;2023-02-02T00:06:45;101998.56;;;7.20;100.00
57568;BME280;43403;51.948;5.922;2023-02-02T00:09:13;102002.00;;;7.21;100.00
57568;BME280;43403;51.948;5.922;2023-02-02T00:11:40;102008.16;;;7.20;100.00
57568;BME280;43403;51.948;5.922;2023-02-02T00:14:06;102009.72;;;7.22;100.00
57568;BME280;43403;51.948;5.922;2023-02-02T00:16:34;101999.19;;;7.24;100.00
57568;BME280;43403;51.948;5.922;2023-02-02T00:19:05;101997.72;;;7.20;100.00
57568;BME280;43403;51.948;5.922;2023-02-02T00:21:33;102003.69;;;7.22;100.00
57568;BME280;43403;51.948;5.922;2023-02-02T00:23:59;102002.94;;;7.20;100.00
57568;BME280;43403;51.948;5.922;2023-02-02T00:26:26;101996.69;;;7.22;100.00
57568;BME280;43403;51.948;5.922;2023-02-02T00:28:53;102008.03;;;7.21;100.00
57568;BME280;43403;51.948;5.922;2023-02-02T00:31:19;102011.13;;;7.28;100.00
57568;BME280;43403;51.948;5.922;2023-02-02T00:33:46;102008.69;;;7.25;100.00
57568;BME280;43403;51.948;5.922;2023-02-02T00:36:13;102008.59;;;7.26;100.00
57568;BME280;43403;51.948;5.922;2023-02-02T00:38:39;102002.56;;;7.26;100.00
57568;BME280;43403;51.948;5.922;2023-02-02T00:41:05;102007.69;;;7.27;100.00
57568;BME280;43403;51.948;5.922;2023-02-02T00:43:32;102002.47;;;7.27;100.00
57568;BME280;43403;51.948;5.922;2023-02-02T00:45:59;101999.94;;;7.26;100.00
57568;BME280;43403;51.948;5.922;2023-02-02T00:48:25;102006.72;;;7.28;100.00
57568;BME280;43403;51.948;5.922;2023-02-02T00:50:52;102017.09;;;7.30;100.00
57568;BME280;43403;51.948;5.922;2023-02-02T00:53:18;102014.47;;;7.30;100.00
57568;BME280;43403;51.948;5.922;2023-02-02T00:55:44;102014.66;;;7.27;100.00
57568;BME280;43403;51.948;5.922;2023-02-02T00:58:11;102008.59;;;7.26;100.00
57568;BME280;43403;51.948;5.922;2023-02-02T01:00:37;102011.22;;;7.26;100.00
57568;BME280;43403;51.948;5.922;2023-02-02T01:03:03;102006.81;;;7.27;100.00
57568;BME280;43403;51.948;5.922;2023-02-02T01:05:31;102009.34;;;7.28;100.00
57568;BME280;43403;51.948;5.922;2023-02-02T01:07:58;102000.69;;;7.28;100.00
57568;BME280;43403;51.948;5.922;2023-02-02T01:10:24;102001.44;;;7.30;100.00
57568;BME280;43403;51.948;5.922;2023-02-02T01:12:51;102010.28;;;7.27;100.00
57568;BME280;43403;51.948;5.922;2023-02-02T01:15:17;102006.81;;;7.27;100.00
57568;BME280;43403;51.948;5.922;2023-02-02T01:17:44;102017.25;;;7.27;100.00
57568;BME280;43403;51.948;5.922;2023-02-02T01:20:14;102021.56;;;7.28;100.00
57568;BME280;43403;51.948;5.922;2023-02-02T01:22:40;102020.72;;;7.27;100.00
57568;BME280;43403;51.948;5.922;2023-02-02T01:25:07;102019.03;;;7.26;100.00
57568;BME280;43403;51.948;5.922;2023-02-02T01:27:33;102018.31;;;7.24;100.00
57568;BME280;43403;51.948;5.922;2023-02-02T01:29:59;102013.25;;;7.21;100.00
57568;BME280;43403;51.948;5.922;2023-02-02T01:32:26;102025.56;;;7.19;100.00
57568;BME280;43403;51.948;5.922;2023-02-02T01:34:52;102021.94;;;7.22;100.00
57568;BME280;43403;51.948;5.922;2023-02-02T01:37:19;102028.09;;;7.21;100.00
57568;BME280;43403;51.948;5.922;2023-02-02T01:39:47;102034.03;;;7.23;100.00
57568;BME280;43403;51.948;5.922;2023-02-02T01:42:15;102031.53;;;7.21;100.00
57568;BME280;43403;51.948;5.922;2023-02-02T01:47:18;102044.13;;;7.15;100.00
57568;BME280;43403;51.948;5.922;2023-02-02T01:49:45;102036.94;;;7.18;100.00
57568;BME280;43403;51.948;5.922;2023-02-02T01:52:12;102040.69;;;7.14;100.00
57568;BME280;43403;51.948;5.922;2023-02-02T01:54:41;102038.06;;;7.14;100.00
57568;BME280;43403;51.948;5.922;2023-02-02T01:57:16;102034.81;;;7.10;100.00
57568;BME280;43403;51.948;5.922;2023-02-02T01:59:44;102042.34;;;7.15;100.00
57568;BME280;43403;51.948;5.922;2023-02-02T02:02:12;102039.13;;;7.11;100.00
57568;BME280;43403;51.948;5.922;2023-02-02T02:04:39;102039.84;;;7.13;100.00
57568;BME280;43403;51.948;5.922;2023-02-02T02:07:07;102049.44;;;7.13;100.00
57568;BME280;43403;51.948;5.922;2023-02-02T02:09:34;102044.50;;;7.08;100.00
57568;BME280;43403;51.948;5.922;2023-02-02T02:12:00;102035.47;;;7.14;100.00
57568;BME280;43403;51.948;5.922;2023-02-02T02:14:27;102037.41;;;7.10;100.00
57568;BME280;43403;51.948;5.922;2023-02-02T02:28:15;102032.00;;;6.99;100.00
57568;BME280;43403;51.948;5.922;2023-02-02T02:38:33;102027.09;;;6.95;100.00
57568;BME280;43403;51.948;5.922;2023-02-02T02:41:02;102031.47;;;6.94;100.00
57568;BME280;43403;51.948;5.922;2023-02-02T02:43:36;102028.00;;;6.93;100.00
57568;BME280;43403;51.948;5.922;2023-02-02T02:46:04;102030.06;;;6.88;100.00
57568;BME280;43403;51.948;5.922;2023-02-02T02:48:32;102030.16;;;6.87;100.00
57568;BME280;43403;51.948;5.922;2023-02-02T02:51:04;102023.91;;;6.89;100.00
57568;BME280;43403;51.948;5.922;2023-02-02T02:53:30;102025.84;;;6.86;100.00
57568;BME280;43403;51.948;5.922;2023-02-02T02:56:17;102019.63;;;6.88;100.00
57568;BME280;43403;51.948;5.922;2023-02-02T03:01:56;102015.63;;;6.97;100.00
57568;BME280;43403;51.948;5.922;2023-02-02T03:04:06;102008.06;;;6.92;100.00
57568;BME280;43403;51.948;5.922;2023-02-02T03:07:09;102009.66;;;6.95;100.00
57568;BME280;43403;51.948;5.922;2023-02-02T03:09:29;102010.41;;;6.97;100.00
57568;BME280;43403;51.948;5.922;2023-02-02T03:11:59;102005.25;;;6.96;100.00
57568;BME280;43403;51.948;5.922;2023-02-02T03:14:26;101995.59;;;6.83;100.00
57568;BME280;43403;51.948;5.922;2023-02-02T03:16:53;101997.38;;;6.83;100.00
57568;BME280;43403;51.948;5.922;2023-02-02T03:19:19;102008.84;;;6.80;100.00
57568;BME280;43403;51.948;5.922;2023-02-02T03:21:46;102007.31;;;6.76;100.00
57568;BME280;43403;51.948;5.922;2023-02-02T03:24:12;102008.19;;;6.77;100.00
57568;BME280;43403;51.948;5.922;2023-02-02T03:26:38;102014.06;;;6.80;100.00
57568;BME280;43403;51.948;5.922;2023-02-02T03:29:05;102017.50;;;6.81;100.00
57568;BME280;43403;51.948;5.922;2023-02-02T03:31:31;102016.28;;;6.86;100.00
57568;BME280;43403;51.948;5.922;2023-02-02T03:33:58;102027.47;;;6.88;100.00
57568;BME280;43403;51.948;5.922;2023-02-02T03:36:24;102025.78;;;6.87;100.00
57568;BME280;43403;51.948;5.922;2023-02-02T03:38:50;102035.19;;;6.90;100.00
57568;BME280;43403;51.948;5.922;2023-02-02T03:41:17;102036.13;;;6.89;100.00
57568;BME280;43403;51.948;5.922;2023-02-02T03:43:43;102042.72;;;6.95;100.00
57568;BME280;43403;51.948;5.922;2023-02-02T03:46:09;102033.03;;;6.97;100.00
57568;BME280;43403;51.948;5.922;2023-02-02T03:48:36;102034.72;;;6.98;100.00
57568;BME280;43403;51.948;5.922;2023-02-02T03:51:10;102026.25;;;6.94;100.00
57568;BME280;43403;51.948;5.922;2023-02-02T03:53:38;102025.22;;;6.97;100.00
57568;BME280;43403;51.948;5.922;2023-02-02T03:56:04;102030.59;;;6.93;100.00
57568;BME280;43403;51.948;5.922;2023-02-02T03:58:31;102027.75;;;6.98;100.00
57568;BME280;43403;51.948;5.922;2023-02-02T04:01:01;102034.53;;;7.01;100.00
57568;BME280;43403;51.948;5.922;2023-02-02T04:03:28;102033.69;;;7.00;100.00
57568;BME280;43403;51.948;5.922;2023-02-02T04:05:55;102031.00;;;7.02;100.00
57568;BME280;43403;51.948;5.922;2023-02-02T04:08:21;102024.94;;;7.01;100.00
57568;BME280;43403;51.948;5.922;2023-02-02T04:10:47;102031.94;;;7.01;100.00
57568;BME280;43403;51.948;5.922;2023-02-02T04:13:14;102026.53;;;7.04;100.00
57568;BME280;43403;51.948;5.922;2023-02-02T04:15:40;102016.72;;;7.07;100.00
57568;BME280;43403;51.948;5.922;2023-02-02T04:18:07;102013.19;;;7.08;100.00
57568;BME280;43403;51.948;5.922;2023-02-02T04:20:33;102012.16;;;7.11;100.00
57568;BME280;43403;51.948;5.922;2023-02-02T04:22:59;102014.84;;;7.09;100.00
57568;BME280;43403;51.948;5.922;2023-02-02T04:25:26;102014.59;;;7.14;100.00
57568;BME280;43403;51.948;5.922;2023-02-02T04:27:52;102015.34;;;7.16;100.00
57568;BME280;43403;51.948;5.922;2023-02-02T04:30:19;102017.84;;;7.18;100.00
57568;BME280;43403;51.948;5.922;2023-02-02T04:32:45;102013.25;;;7.21;100.00
57568;BME280;43403;51.948;5.922;2023-02-02T04:35:11;102018.31;;;7.24;100.00
57568;BME280;43403;51.948;5.922;2023-02-02T04:37:38;102007.03;;;7.24;100.00
57568;BME280;43403;51.948;5.922;2023-02-02T04:40:04;102001.72;;;7.25;100.00
57568;BME280;43403;51.948;5.922;2023-02-02T04:42:31;102007.88;;;7.24;100.00
57568;BME280;43403;51.948;5.922;2023-02-02T04:44:59;102002.63;;;7.24;100.00
57568;BME280;43403;51.948;5.922;2023-02-02T04:47:25;102012.91;;;7.27;100.00
57568;BME280;43403;51.948;5.922;2023-02-02T04:49:51;102010.16;;;7.29;100.00
57568;BME280;43403;51.948;5.922;2023-02-02T04:52:18;102021.25;;;7.32;100.00
57568;BME280;43403;51.948;5.922;2023-02-02T04:54:44;102031.63;;;7.34;100.00
57568;BME280;43403;51.948;5.922;2023-02-02T04:57:10;102033.31;;;7.35;100.00
57568;BME280;43403;51.948;5.922;2023-02-02T04:59:37;102031.53;;;7.36;100.00
57568;BME280;43403;51.948;5.922;2023-02-02T05:02:07;102023.78;;;7.34;100.00
57568;BME280;43403;51.948;5.922;2023-02-02T05:04:34;102026.22;;;7.37;100.00
57568;BME280;43403;51.948;5.922;2023-02-02T05:07:00;102024.44;;;7.38;100.00
57568;BME280;43403;51.948;5.922;2023-02-02T05:09:27;102029.75;;;7.36;100.00
57568;BME280;43403;51.948;5.922;2023-02-02T05:11:53;102034.06;;;7.37;100.00
57568;BME280;43403;51.948;5.922;2023-02-02T05:14:19;102026.84;;;7.41;100.00
57568;BME280;43403;51.948;5.922;2023-02-02T05:16:46;102036.28;;;7.43;100.00
57568;BME280;43403;51.948;5.922;2023-02-02T05:19:12;102035.63;;;7.40;100.00
57568;BME280;43403;51.948;5.922;2023-02-02T05:21:44;102035.41;;;7.43;100.00
57568;BME280;43403;51.948;5.922;2023-02-02T05:24:11;102030.31;;;7.41;100.00
57568;BME280;43403;51.948;5.922;2023-02-02T05:26:37;102036.19;;;7.45;100.00
57568;BME280;43403;51.948;5.922;2023-02-02T05:29:03;102036.06;;;7.46;100.00
57568;BME280;43403;51.948;5.922;2023-02-02T05:31:31;102037.75;;;7.47;100.00
57568;BME280;43403;51.948;5.922;2023-02-02T05:33:58;102041.19;;;7.48;100.00
57568;BME280;43403;51.948;5.922;2023-02-02T05:36:24;102036.81;;;7.48;100.00
57568;BME280;43403;51.948;5.922;2023-02-02T05:38:51;102033.38;;;7.48;100.00
57568;BME280;43403;51.948;5.922;2023-02-02T05:41:17;102033.56;;;7.45;100.00
57568;BME280;43403;51.948;5.922;2023-02-02T05:43:43;102042.03;;;7.48;100.00
57568;BME280;43403;51.948;5.922;2023-02-02T05:46:10;102036.81;;;7.48;100.00
57568;BME280;43403;51.948;5.922;2023-02-02T05:48:37;102030.66;;;7.49;100.00
57568;BME280;43403;51.948;5.922;2023-02-02T05:51:04;102034.84;;;7.52;100.00
57568;BME280;43403;51.948;5.922;2023-02-02T05:53:33;102035.97;;;7.48;100.00
57568;BME280;43403;51.948;5.922;2023-02-02T05:55:59;102032.13;;;7.53;100.00
57568;BME280;43403;51.948;5.922;2023-02-02T05:58:26;102040.88;;;7.52;100.00
57568;BME280;43403;51.948;5.922;2023-02-02T06:00:53;102035.59;;;7.54;100.00
57568;BME280;43403;51.948;5.922;2023-02-02T06:03:22;102035.78;;;7.51;100.00
57568;BME280;43403;51.948;5.922;2023-02-02T06:05:48;102039.97;;;7.53;100.00
57568;BME280;43403;51.948;5.922;2023-02-02T06:08:14;102036.41;;;7.55;100.00
57568;BME280;43403;51.948;5.922;2023-02-02T06:10:41;102035.59;;;7.54;100.00
57568;BME280;43403;51.948;5.922;2023-02-02T06:13:08;102041.53;;;7.56;100.00
57568;BME280;43403;51.948;5.922;2023-02-02T06:15:34;102045.94;;;7.56;100.00
57568;BME280;43403;51.948;5.922;2023-02-02T06:18:01;102042.59;;;7.53;100.00
57568;BME280;43403;51.948;5.922;2023-02-02T06:20:28;102051.25;;;7.54;100.00
57568;BME280;43403;51.948;5.922;2023-02-02T06:22:55;102047.50;;;7.58;100.00
57568;BME280;43403;51.948;5.922;2023-02-02T06:25:22;102053.69;;;7.57;100.00
57568;BME280;43403;51.948;5.922;2023-02-02T06:27:49;102058.06;;;7.57;100.00
57568;BME280;43403;51.948;5.922;2023-02-02T06:30:15;102059.66;;;7.59;100.00
57568;BME280;43403;51.948;5.922;2023-02-02T06:32:42;102055.25;;;7.60;100.00
57568;BME280;43403;51.948;5.922;2023-02-02T06:35:08;102059.44;;;7.62;100.00
57568;BME280;43403;51.948;5.922;2023-02-02T06:37:34;102064.78;;;7.61;100.00
57568;BME280;43403;51.948;5.922;2023-02-02T06:40:05;102068.88;;;7.65;100.00
57568;BME280;43403;51.948;5.922;2023-02-02T06:42:31;102075.00;;;7.64;100.00
57568;BME280;43403;51.948;5.922;2023-02-02T06:44:58;102076.78;;;7.63;100.00
57568;BME280;43403;51.948;5.922;2023-02-02T06:47:24;102084.53;;;7.65;100.00
57568;BME280;43403;51.948;5.922;2023-02-02T06:49:52;102089.84;;;7.63;100.00
57568;BME280;43403;51.948;5.922;2023-02-02T06:52:18;102090.03;;;7.60;100.00
57568;BME280;43403;51.948;5.922;2023-02-02T06:54:44;102088.47;;;7.58;100.00
57568;BME280;43403;51.948;5.922;2023-02-02T06:57:11;102093.59;;;7.59;100.00
57568;BME280;43403;51.948;5.922;2023-02-02T06:59:37;102097.78;;;7.62;100.00
57568;BME280;43403;51.948;5.922;2023-02-02T07:02:08;102098.81;;;7.59;100.00
57568;BME280;43403;51.948;5.922;2023-02-02T07:04:35;102097.78;;;7.62;100.00
57568;BME280;43403;51.948;5.922;2023-02-02T07:07:03;102098.16;;;7.56;100.00
57568;BME280;43403;51.948;5.922;2023-02-02T07:09:33;102097.41;;;7.53;100.00
57568;BME280;43403;51.948;5.922;2023-02-02T07:12:01;102100.78;;;7.56;100.00
57568;BME280;43403;51.948;5.922;2023-02-02T07:14:27;102097.50;;;7.52;100.00
57568;BME280;43403;51.948;5.922;2023-02-02T07:16:53;102106.09;;;7.54;100.00
57568;BME280;43403;51.948;5.922;2023-02-02T07:19:20;102097.31;;;7.55;100.00
57568;BME280;43403;51.948;5.922;2023-02-02T07:21:46;102104.50;;;7.51;100.00
57568;BME280;43403;51.948;5.922;2023-02-02T07:24:12;102102.81;;;7.50;100.00
57568;BME280;43403;51.948;5.922;2023-02-02T07:26:39;102105.25;;;7.53;100.00
57568;BME280;43403;51.948;5.922;2023-02-02T07:29:05;102102.06;;;7.48;100.00
57568;BME280;43403;51.948;5.922;2023-02-02T07:31:31;102106.09;;;7.54;100.00
57568;BME280;43403;51.948;5.922;2023-02-02T07:34:01;102099.19;;;7.53;100.00
57568;BME280;43403;51.948;5.922;2023-02-02T07:36:28;102110.47;;;7.53;100.00
57568;BME280;43403;51.948;5.922;2023-02-02T07:38:54;102112.91;;;7.57;100.00
57568;BME280;43403;51.948;5.922;2023-02-02T07:41:25;102114.94;;;7.51;100.00
57568;BME280;43403;51.948;5.922;2023-02-02T07:43:53;102123.34;;;7.57;100.00
57568;BME280;43403;51.948;5.922;2023-02-02T07:46:19;102128.66;;;7.55;100.00
57568;BME280;43403;51.948;5.922;2023-02-02T07:48:46;102124.28;;;7.56;100.00
57568;BME280;43403;51.948;5.922;2023-02-02T07:51:14;102125.09;;;7.56;100.00
57568;BME280;43403;51.948;5.922;2023-02-02T07:53:44;102130.53;;;7.53;100.00
57568;BME280;43403;51.948;5.922;2023-02-02T07:56:12;102132.19;;;7.54;100.00
57568;BME280;43403;51.948;5.922;2023-02-02T07:58:39;102139.28;;;7.52;100.00
57568;BME280;43403;51.948;5.922;2023-02-02T08:01:07;102141.91;;;7.52;100.00
57568;BME280;43403;51.948;5.922;2023-02-02T08:03:34;102139.38;;;7.50;100.00
57568;BME280;43403;51.948;5.922;2023-02-02T08:06:07;102150.84;;;7.48;100.00
57568;BME280;43403;51.948;5.922;2023-02-02T08:08:34;102151.59;;;7.50;100.00
57568;BME280;43403;51.948;5.922;2023-02-02T08:11:01;102159.34;;;7.51;100.00
57568;BME280;43403;51.948;5.922;2023-02-02T08:13:27;102155.03;;;7.50;100.00
57568;BME280;43403;51.948;5.922;2023-02-02T08:15:56;102155.69;;;7.54;100.00
57568;BME280;43403;51.948;5.922;2023-02-02T08:18:25;102143.59;;;7.53;100.00
57568;BME280;43403;51.948;5.922;2023-02-02T08:20:52;102148.91;;;7.51;100.00
57568;BME280;43403;51.948;5.922;2023-02-02T08:23:18;102155.03;;;7.50;100.00
57568;BME280;43403;51.948;5.922;2023-02-02T08:25:49;102151.59;;;7.50;100.00
57568;BME280;43403;51.948;5.922;2023-02-02T08:28:16;102148.16;;;7.49;100.00
57568;BME280;43403;51.948;5.922;2023-02-02T08:30:42;102154.22;;;7.50;100.00
57568;BME280;43403;51.948;5.922;2023-02-02T08:33:09;102158.50;;;7.51;100.00
57568;BME280;43403;51.948;5.922;2023-02-02T08:35:41;102161.00;;;7.52;100.00
57568;BME280;43403;51.948;5.922;2023-02-02T08:38:08;102162.03;;;7.50;100.00
57568;BME280;43403;51.948;5.922;2023-02-02T08:40:34;102172.19;;;7.55;100.00
57568;BME280;43403;51.948;5.922;2023-02-02T08:43:01;102173.59;;;7.60;100.00
57568;BME280;43403;51.948;5.922;2023-02-02T08:45:29;102167.44;;;7.61;100.00
57568;BME280;43403;51.948;5.922;2023-02-02T08:48:16;102177.16;;;7.59;100.00
57568;BME280;43403;51.948;5.922;2023-02-02T08:50:50;102188.91;;;7.66;100.00
57568;BME280;43403;51.948;5.922;2023-02-02T08:53:16;102193.94;;;7.69;100.00
57568;BME280;43403;51.948;5.922;2023-02-02T08:55:43;102199.91;;;7.71;100.00
57568;BME280;43403;51.948;5.922;2023-02-02T08:58:09;102201.47;;;7.74;100.00
57568;BME280;43403;51.948;5.922;2023-02-02T09:00:35;102195.41;;;7.73;100.00
57568;BME280;43403;51.948;5.922;2023-02-02T09:03:01;102194.59;;;7.73;100.00
57568;BME280;43403;51.948;5.922;2023-02-02T09:05:28;102195.25;;;7.77;100.00
57568;BME280;43403;51.948;5.922;2023-02-02T09:07:54;102200.38;;;7.78;100.00
57568;BME280;43403;51.948;5.922;2023-02-02T09:10:21;102197.78;;;7.78;100.00
57568;BME280;43403;51.948;5.922;2023-02-02T09:12:47;102210.72;;;7.80;100.00
57568;BME280;43403;51.948;5.922;2023-02-02T09:15:13;102213.44;;;7.78;100.00
57568;BME280;43403;51.948;5.922;2023-02-02T09:17:40;102209.88;;;7.79;100.00
57568;BME280;43403;51.948;5.922;2023-02-02T09:20:06;102214.06;;;7.82;100.00
57568;BME280;43403;51.948;5.922;2023-02-02T09:22:33;102210.44;;;7.84;100.00
57568;BME280;43403;51.948;5.922;2023-02-02T09:24:59;102229.19;;;7.91;100.00
57568;BME280;43403;51.948;5.922;2023-02-02T09:27:25;102225.44;;;7.95;100.00
57568;BME280;43403;51.948;5.922;2023-02-02T09:29:51;102244.22;;;8.02;100.00
57568;BME280;43403;51.948;5.922;2023-02-02T09:32:18;102246.91;;;8.00;100.00
57568;BME280;43403;51.948;5.922;2023-02-02T09:34:45;102243.91;;;8.06;100.00
57568;BME280;43403;51.948;5.922;2023-02-02T09:37:11;102251.56;;;8.09;100.00
57568;BME280;43403;51.948;5.922;2023-02-02T09:39:37;102256.59;;;8.12;100.00
57568;BME280;43403;51.948;5.922;2023-02-02T09:52:16;102271.06;;;8.18;100.00
57568;BME280;43403;51.948;5.922;2023-02-02T09:54:44;102268.16;;;8.23;100.00
57568;BME280;43403;51.948;5.922;2023-02-02T09:57:13;102267.50;;;8.19;100.00
57568;BME280;43403;51.948;5.922;2023-02-02T09:59:41;102262.19;;;8.21;100.00
57568;BME280;43403;51.948;5.922;2023-02-02T10:02:16;102266.59;;;8.20;100.00
57568;BME280;43403;51.948;5.922;2023-02-02T10:04:45;102281.44;;;8.20;100.00
57568;BME280;43403;51.948;5.922;2023-02-02T10:07:15;102288.16;;;8.24;100.00
57568;BME280;43403;51.948;5.922;2023-02-02T10:09:46;102279.47;;;8.23;100.00
57568;BME280;43403;51.948;5.922;2023-02-02T10:12:27;102279.75;;;8.19;100.00
57568;BME280;43403;51.948;5.922;2023-02-02T10:17:50;102292.34;;;8.26;100.00
57568;BME280;43403;51.948;5.922;2023-02-02T10:20:25;102288.41;;;8.34;100.00
57568;BME280;43403;51.948;5.922;2023-02-02T10:22:54;102292.44;;;8.39;100.00
57568;BME280;43403;51.948;5.922;2023-02-02T10:25:24;102298.59;;;8.38;100.00
57568;BME280;43403;51.948;5.922;2023-02-02T10:27:55;102300.16;;;8.41;100.00
57568;BME280;43403;51.948;5.922;2023-02-02T10:30:29;102307.25;;;8.39;100.00
57568;BME280;43403;51.948;5.922;2023-02-02T10:38:00;102308.81;;;8.43;100.00
57568;BME280;43403;51.948;5.922;2023-02-02T10:40:46;102306.81;;;8.46;100.00
57568;BME280;43403;51.948;5.922;2023-02-02T10:43:33;102312.16;;;8.45;100.00
57568;BME280;43403;51.948;5.922;2023-02-02T10:46:35;102315.97;;;8.39;100.00
57568;BME280;43403;51.948;5.922;2023-02-02T10:49:08;102321.66;;;8.46;100.00
57568;BME280;43403;51.948;5.922;2023-02-02T10:51:36;102316.13;;;8.50;100.00
57568;BME280;43403;51.948;5.922;2023-02-02T10:54:04;102317.94;;;8.50;100.00
57568;BME280;43403;51.948;5.922;2023-02-02T10:56:35;102314.25;;;8.52;100.00
57568;BME280;43403;51.948;5.922;2023-02-02T10:59:10;102312.13;;;8.59;100.00
57568;BME280;43403;51.948;5.922;2023-02-02T11:01:38;102308.47;;;8.62;100.00
57568;BME280;43403;51.948;5.922;2023-02-02T11:04:05;102315.28;;;8.64;100.00
57568;BME280;43403;51.948;5.922;2023-02-02T11:06:50;102314.25;;;8.67;100.00
57568;BME280;43403;51.948;5.922;2023-02-02T11:09:29;102318.25;;;8.73;100.00
57568;BME280;43403;51.948;5.922;2023-02-02T11:12:00;102319.41;;;8.68;100.00
57568;BME280;43403;51.948;5.922;2023-02-02T11:14:36;102321.06;;;8.69;100.00
57568;BME280;43403;51.948;5.922;2023-02-02T11:17:21;102305.03;;;8.61;100.00
57568;BME280;43403;51.948;5.922;2023-02-02T11:19:48;102311.09;;;8.62;100.00
57568;BME280;43403;51.948;5.922;2023-02-02T11:22:25;102311.66;;;8.67;100.00
57568;BME280;43403;51.948;5.922;2023-02-02T11:24:53;102308.47;;;8.62;100.00
57568;BME280;43403;51.948;5.922;2023-02-02T11:27:30;102323.41;;;8.60;100.00
57568;BME280;43403;51.948;5.922;2023-02-02T11:29:58;102326.81;;;8.47;100.00
57568;BME280;43403;51.948;5.922;2023-02-02T11:32:26;102311.56;;;8.54;100.00
57568;BME280;43403;51.948;5.922;2023-02-02T11:37:29;102311.41;;;8.43;100.00
57568;BME280;43403;51.948;5.922;2023-02-02T11:40:17;102306.34;;;8.40;100.00
57568;BME280;43403;51.948;5.922;2023-02-02T11:42:43;102300.16;;;8.41;100.00
57568;BME280;43403;51.948;5.922;2023-02-02T11:45:15;102293.22;;;8.41;100.00
57568;BME280;43403;51.948;5.922;2023-02-02T11:47:43;102307.75;;;8.45;100.00
57568;BME280;43403;51.948;5.922;2023-02-02T11:50:23;102295.81;;;8.41;100.00
57568;BME280;43403;51.948;5.922;2023-02-02T11:52:51;102308.00;;;8.41;100.00
57568;BME280;43403;51.948;5.922;2023-02-02T11:55:21;102303.66;;;8.41;100.00
57568;BME280;43403;51.948;5.922;2023-02-02T12:00:46;102308.03;;;8.55;100.00
57568;BME280;43403;51.948;5.922;2023-02-02T12:05:52;102311.31;;;8.44;100.00
57568;BME280;43403;51.948;5.922;2023-02-02T12:08:18;102306.94;;;8.45;100.00
57568;BME280;43403;51.948;5.922;2023-02-02T12:21:14;102304.84;;;8.50;100.00
57568;BME280;43403;51.948;5.922;2023-02-02T12:23:46;102302.97;;;8.52;100.00
57568;BME280;43403;51.948;5.922;2023-02-02T12:26:20;102311.03;;;8.49;100.00
57568;BME280;43403;51.948;5.922;2023-02-02T12:36:59;102297.22;;;8.47;100.00
57568;BME280;43403;51.948;5.922;2023-02-02T12:39:32;102302.97;;;8.52;100.00
57568;BME280;43403;51.948;5.922;2023-02-02T12:42:27;102301.00;;;8.56;100.00
57568;BME280;43403;51.948;5.922;2023-02-02T12:45:13;102302.44;;;8.47;100.00
57568;BME280;43403;51.948;5.922;2023-02-02T12:47:53;102296.56;;;8.43;100.00
57568;BME280;43403;51.948;5.922;2023-02-02T12:58:23;102294.47;;;8.34;100.00
57568;BME280;43403;51.948;5.922;2023-02-02T13:01:05;102296.44;;;8.30;100.00
57568;BME280;43403;51.948;5.922;2023-02-02T13:03:38;102301.75;;;8.29;100.00
57568;BME280;43403;51.948;5.922;2023-02-02T13:11:14;102311.09;;;8.19;100.00
57568;BME280;43403;51.948;5.922;2023-02-02T13:13:57;102309.53;;;8.16;100.00
57568;BME280;43403;51.948;5.922;2023-02-02T13:16:26;102303.47;;;8.16;100.00
57568;BME280;43403;51.948;5.922;2023-02-02T13:18:57;102307.75;;;8.17;100.00
57568;BME280;43403;51.948;5.922;2023-02-02T13:21:25;102302.72;;;8.14;100.00
57568;BME280;43403;51.948;5.922;2023-02-02T13:23:58;102309.63;;;8.00;100.00
57568;BME280;43403;51.948;5.922;2023-02-02T13:26:26;102314.28;;;7.95;100.00
57568;BME280;43403;51.948;5.922;2023-02-02T13:29:10;102299.56;;;7.94;100.00
57568;BME280;43403;51.948;5.922;2023-02-02T13:32:25;102301.59;;;7.89;100.00
57568;BME280;43403;51.948;5.922;2023-02-02T13:34:38;102303.75;;;7.82;100.00
57568;BME280;43403;51.948;5.922;2023-02-02T13:37:15;102305.50;;;7.82;100.00
57568;BME280;43403;51.948;5.922;2023-02-02T13:39:44;102308.22;;;7.80;100.00
57568;BME280;43403;51.948;5.922;2023-02-02T13:45:12;102309.81;;;7.83;100.00
57568;BME280;43403;51.948;5.922;2023-02-02T13:47:41;102313.09;;;7.86;100.00
57568;BME280;43403;51.948;5.922;2023-02-02T13:50:12;102309.53;;;7.87;100.00
57568;BME280;43403;51.948;5.922;2023-02-02T13:52:56;102302.72;;;7.85;100.00
57568;BME280;43403;51.948;5.922;2023-02-02T14:00:26;102316.97;;;7.79;100.00
57568;BME280;43403;51.948;5.922;2023-02-02T14:02:56;102312.78;;;7.77;100.00
57568;BME280;43403;51.948;5.922;2023-02-02T14:05:32;102316.06;;;7.80;100.00
57568;BME280;43403;51.948;5.922;2023-02-02T14:10:28;102322.03;;;7.82;100.00
57568;BME280;43403;51.948;5.922;2023-02-02T14:13:04;102322.03;;;7.82;100.00
57568;BME280;43403;51.948;5.922;2023-02-02T14:15:36;102328.09;;;7.83;100.00
57568;BME280;43403;51.948;5.922;2023-02-02T14:18:02;102326.50;;;7.80;100.00
57568;BME280;43403;51.948;5.922;2023-02-02T14:20:39;102316.91;;;7.81;100.00
57568;BME280;43403;51.948;5.922;2023-02-02T14:26:07;102322.38;;;7.76;100.00
57568;BME280;43403;51.948;5.922;2023-02-02T14:28:38;102324.81;;;7.79;100.00
57568;BME280;43403;51.948;5.922;2023-02-02T14:31:15;102326.97;;;7.72;100.00
57568;BME280;43403;51.948;5.922;2023-02-02T14:33:42;102325.19;;;7.73;100.00
57568;BME280;43403;51.948;5.922;2023-02-02T14:36:13;102332.56;;;7.81;100.00